createdAt,value
2017-09-07T00:00:13.378Z,78.99
2017-09-07T00:00:39.480Z,79.18
2017-09-07T00:01:05.594Z,79.47
2017-09-07T00:01:31.703Z,79.28
2017-09-07T00:01:57.806Z,79.28
2017-09-07T00:02:23.917Z,79.18
2017-09-07T00:02:50.021Z,78.99
2017-09-07T00:03:16.127Z,78.89
2017-09-07T00:03:42.276Z,79.08
2017-09-07T00:04:08.429Z,78.93
2017-09-07T00:04:34.535Z,79.22
2017-09-07T00:05:00.639Z,79.13
2017-09-07T00:05:26.804Z,79.13
2017-09-07T00:05:53.029Z,78.74
2017-09-07T00:06:19.142Z,78.61
2017-09-07T00:06:45.251Z,78.64
2017-09-07T00:07:11.354Z,78.84
2017-09-07T00:07:37.469Z,78.93
2017-09-07T00:08:03.595Z,79.08
2017-09-07T00:08:29.701Z,79.03
2017-09-07T00:08:55.815Z,78.74
2017-09-07T00:09:21.918Z,78.74
2017-09-07T00:09:48.104Z,79.08
2017-09-07T00:10:14.267Z,79.18
2017-09-07T00:10:40.369Z,78.99
2017-09-07T00:11:06.476Z,78.99
2017-09-07T00:11:32.627Z,79.08
2017-09-07T00:11:58.779Z,79.08
2017-09-07T00:12:24.889Z,79.18
2017-09-07T00:12:51.003Z,79.18
2017-09-07T00:13:17.122Z,79.37
2017-09-07T00:13:43.219Z,78.84
2017-09-07T00:14:09.332Z,78.64
2017-09-07T00:14:35.458Z,79.13
2017-09-07T00:15:01.572Z,78.93
2017-09-07T00:15:27.690Z,78.84
2017-09-07T00:15:53.792Z,78.61
2017-09-07T00:16:19.920Z,78.64
2017-09-07T00:16:46.033Z,78.17
2017-09-07T00:17:12.135Z,78.55
2017-09-07T00:17:38.264Z,78.64
2017-09-07T00:18:04.387Z,78.84
2017-09-07T00:18:30.512Z,78.8
2017-09-07T00:18:56.627Z,78.8
2017-09-07T00:19:22.730Z,78.99
2017-09-07T00:19:48.877Z,79.18
2017-09-07T00:20:14.988Z,78.99
2017-09-07T00:20:41.095Z,79.37
2017-09-07T00:21:07.204Z,79.28
2017-09-07T00:21:33.330Z,79.47
2017-09-07T00:21:59.438Z,79.28
2017-09-07T00:22:25.546Z,79.37
2017-09-07T00:22:51.657Z,79.28
2017-09-07T00:23:17.763Z,79.28
2017-09-07T00:23:43.906Z,79.57
2017-09-07T00:24:10.016Z,79.47
2017-09-07T00:24:36.123Z,79.28
2017-09-07T00:25:02.424Z,79.47
2017-09-07T00:25:28.546Z,79.57
2017-09-07T00:25:54.653Z,79.37
2017-09-07T00:26:20.757Z,79.47
2017-09-07T00:26:46.888Z,79.47
2017-09-07T00:27:13.021Z,79.32
2017-09-07T00:27:39.136Z,79.03
2017-09-07T00:28:05.242Z,79.18
2017-09-07T00:28:31.351Z,78.93
2017-09-07T00:28:57.454Z,79.22
2017-09-07T00:29:23.566Z,79.03
2017-09-07T00:29:49.670Z,78.99
2017-09-07T00:30:15.783Z,79.22
2017-09-07T00:30:41.888Z,78.84
2017-09-07T00:31:08.097Z,79.13
2017-09-07T00:31:34.211Z,79.03
2017-09-07T00:32:00.312Z,79.03
2017-09-07T00:32:26.424Z,79.13
2017-09-07T00:32:52.536Z,78.61
2017-09-07T00:33:18.686Z,79.22
2017-09-07T00:33:44.793Z,79.08
2017-09-07T00:34:10.907Z,79.57
2017-09-07T00:34:37.013Z,79.47
2017-09-07T00:35:03.169Z,79.66
2017-09-07T00:35:29.279Z,79.95
2017-09-07T00:35:55.383Z,79.85
2017-09-07T00:36:21.494Z,80.04
2017-09-07T00:36:47.594Z,80.14
2017-09-07T00:37:13.902Z,80.24
2017-09-07T00:37:40.006Z,80.33
2017-09-07T00:38:06.119Z,79.95
2017-09-07T00:38:32.228Z,79.85
2017-09-07T00:38:58.373Z,80.43
2017-09-07T00:39:24.463Z,80.24
2017-09-07T00:39:50.581Z,80.33
2017-09-07T00:40:16.688Z,80.24
2017-09-07T00:40:42.804Z,80.33
2017-09-07T00:41:08.909Z,80.33
2017-09-07T00:41:35.012Z,80.62
2017-09-07T00:42:01.122Z,80.43
2017-09-07T00:42:27.243Z,80.33
2017-09-07T00:42:53.354Z,80.33
2017-09-07T00:43:19.466Z,80.24
2017-09-07T00:43:45.572Z,80.71
2017-09-07T00:44:11.731Z,80.52
2017-09-07T00:44:37.844Z,80.43
2017-09-07T00:45:03.957Z,80.43
2017-09-07T00:45:30.068Z,80.33
2017-09-07T00:45:56.180Z,80.81
2017-09-07T00:46:22.336Z,80.43
2017-09-07T00:46:48.450Z,80.71
2017-09-07T00:47:14.561Z,80.43
2017-09-07T00:47:40.670Z,80.43
2017-09-07T00:48:06.778Z,80.71
2017-09-07T00:48:32.886Z,80.9
2017-09-07T00:48:58.994Z,80.33
2017-09-07T00:49:25.137Z,80.62
2017-09-07T00:49:51.211Z,80.33
2017-09-07T00:50:17.315Z,79.95
2017-09-07T00:50:43.429Z,80.04
2017-09-07T00:51:09.541Z,80.27
2017-09-07T00:51:35.643Z,80.24
2017-09-07T00:52:01.756Z,80.24
2017-09-07T00:52:27.864Z,80.27
2017-09-07T00:52:53.973Z,80.27
2017-09-07T00:53:20.077Z,80.18
2017-09-07T00:53:46.208Z,80.37
2017-09-07T00:54:12.310Z,80.14
2017-09-07T00:54:38.418Z,80.43
2017-09-07T00:55:04.532Z,80.33
2017-09-07T00:55:30.638Z,80.52
2017-09-07T00:55:56.738Z,80.47
2017-09-07T00:56:22.845Z,79.99
2017-09-07T00:56:48.955Z,79.95
2017-09-07T00:57:15.061Z,80.66
2017-09-07T00:57:41.174Z,80.52
2017-09-07T00:58:07.284Z,80.52
2017-09-07T00:58:33.400Z,80.52
2017-09-07T00:58:59.544Z,80.81
2017-09-07T00:59:25.718Z,81.1
2017-09-07T00:59:51.829Z,81.29
2017-09-07T01:00:17.938Z,81.38
2017-09-07T01:00:44.051Z,81.2
2017-09-07T01:01:10.166Z,81.38
2017-09-07T01:01:36.292Z,81
2017-09-07T01:02:02.397Z,81
2017-09-07T01:02:28.504Z,81.1
2017-09-07T01:02:54.619Z,81.29
2017-09-07T01:03:20.722Z,81
2017-09-07T01:03:46.840Z,81.1
2017-09-07T01:04:12.947Z,81.38
2017-09-07T01:04:39.052Z,81.38
2017-09-07T01:05:05.166Z,81
2017-09-07T01:05:31.280Z,80.81
2017-09-07T01:05:57.463Z,80.81
2017-09-07T01:06:23.575Z,80.81
2017-09-07T01:06:49.689Z,81
2017-09-07T01:07:15.797Z,81.1
2017-09-07T01:07:41.907Z,80.81
2017-09-07T01:08:08.009Z,81.1
2017-09-07T01:08:34.122Z,81.2
2017-09-07T01:09:00.226Z,81.67
2017-09-07T01:09:26.333Z,81.38
2017-09-07T01:09:52.446Z,81.29
2017-09-07T01:10:18.552Z,81.48
2017-09-07T01:10:44.670Z,81.77
2017-09-07T01:11:10.802Z,81.48
2017-09-07T01:11:36.901Z,81.57
2017-09-07T01:12:03.008Z,81.48
2017-09-07T01:12:29.121Z,81.67
2017-09-07T01:12:55.272Z,81.67
2017-09-07T01:13:21.377Z,81.86
2017-09-07T01:13:47.491Z,81.67
2017-09-07T01:14:13.598Z,81.67
2017-09-07T01:14:39.703Z,81.67
2017-09-07T01:15:05.816Z,81.48
2017-09-07T01:15:31.920Z,81.48
2017-09-07T01:15:58.034Z,81.29
2017-09-07T01:16:24.145Z,81.96
2017-09-07T01:16:50.272Z,81.57
2017-09-07T01:17:16.383Z,81.48
2017-09-07T01:17:42.509Z,81.48
2017-09-07T01:18:08.615Z,81.38
2017-09-07T01:18:34.739Z,81.29
2017-09-07T01:19:00.853Z,81.48
2017-09-07T01:19:26.967Z,81.57
2017-09-07T01:19:53.134Z,81.48
2017-09-07T01:20:19.245Z,81.86
2017-09-07T01:20:45.352Z,81.38
2017-09-07T01:21:11.457Z,81.38
2017-09-07T01:21:37.570Z,81.57
2017-09-07T01:22:03.676Z,81.48
2017-09-07T01:22:29.781Z,82.06
2017-09-07T01:22:55.895Z,81.86
2017-09-07T01:23:21.998Z,81.96
2017-09-07T01:23:48.114Z,82.24
2017-09-07T01:24:14.218Z,81.77
2017-09-07T01:24:40.328Z,81.86
2017-09-07T01:25:06.469Z,81.86
2017-09-07T01:25:32.574Z,82.06
2017-09-07T01:25:58.682Z,82.06
2017-09-07T01:26:24.787Z,82.06
2017-09-07T01:26:50.960Z,82.43
2017-09-07T01:27:17.065Z,82.24
2017-09-07T01:27:43.175Z,82.15
2017-09-07T01:28:09.279Z,82.43
2017-09-07T01:28:35.392Z,82.34
2017-09-07T01:29:01.495Z,82.15
2017-09-07T01:29:27.632Z,82.34
2017-09-07T01:29:53.742Z,81.67
2017-09-07T01:30:19.846Z,81.86
2017-09-07T01:30:45.952Z,82.24
2017-09-07T01:31:12.059Z,82.15
2017-09-07T01:31:38.165Z,82.06
2017-09-07T01:32:04.277Z,81.67
2017-09-07T01:32:30.412Z,81.67
2017-09-07T01:32:56.488Z,81.86
2017-09-07T01:33:22.603Z,82.06
2017-09-07T01:33:48.774Z,81.77
2017-09-07T01:34:14.876Z,81.96
2017-09-07T01:34:40.981Z,81.57
2017-09-07T01:35:07.094Z,82
2017-09-07T01:35:33.214Z,81.77
2017-09-07T01:35:59.336Z,81.96
2017-09-07T01:36:25.440Z,81.96
2017-09-07T01:36:51.546Z,82.43
2017-09-07T01:37:17.659Z,82.43
2017-09-07T01:37:43.763Z,82.53
2017-09-07T01:38:09.871Z,82.15
2017-09-07T01:38:35.988Z,82.34
2017-09-07T01:39:02.110Z,82.24
2017-09-07T01:39:28.223Z,82.24
2017-09-07T01:39:54.331Z,82.92
2017-09-07T01:40:20.436Z,82.82
2017-09-07T01:40:46.573Z,83.11
2017-09-07T01:41:12.679Z,82.43
2017-09-07T01:41:38.784Z,82.53
2017-09-07T01:42:04.893Z,82.43
2017-09-07T01:42:31.028Z,82.82
2017-09-07T01:42:57.133Z,82.34
2017-09-07T01:43:23.250Z,83.11
2017-09-07T01:43:49.353Z,83.11
2017-09-07T01:44:15.461Z,82.82
2017-09-07T01:44:41.572Z,83.39
2017-09-07T01:45:07.677Z,83.11
2017-09-07T01:45:33.791Z,83.2
2017-09-07T01:45:59.895Z,83.01
2017-09-07T01:46:26.009Z,83.3
2017-09-07T01:46:52.118Z,83.11
2017-09-07T01:47:18.221Z,82.92
2017-09-07T01:47:44.345Z,83.11
2017-09-07T01:48:10.458Z,82.82
2017-09-07T01:48:36.568Z,83.11
2017-09-07T01:49:02.673Z,83.59
2017-09-07T01:49:28.783Z,83.49
2017-09-07T01:49:54.888Z,83.3
2017-09-07T01:50:20.993Z,83.39
2017-09-07T01:50:47.108Z,83.3
2017-09-07T01:51:13.235Z,83.49
2017-09-07T01:51:39.336Z,83.78
2017-09-07T01:52:05.453Z,83.59
2017-09-07T01:52:31.557Z,83.87
2017-09-07T01:52:57.670Z,83.87
2017-09-07T01:53:23.777Z,84.35
2017-09-07T01:53:49.882Z,84.35
2017-09-07T01:54:15.996Z,84.26
2017-09-07T01:54:42.118Z,84.06
2017-09-07T01:55:08.226Z,84.16
2017-09-07T01:55:34.339Z,84.74
2017-09-07T01:56:00.446Z,84.64
2017-09-07T01:56:26.552Z,84.83
2017-09-07T01:56:52.679Z,85.31
2017-09-07T01:57:18.788Z,85.21
2017-09-07T01:57:44.901Z,85.5
2017-09-07T01:58:11.011Z,85.79
2017-09-07T01:58:37.120Z,86.08
2017-09-07T01:59:03.224Z,86.08
2017-09-07T01:59:29.333Z,86.17
2017-09-07T01:59:55.437Z,86.55
2017-09-07T02:00:21.561Z,86.94
2017-09-07T02:00:47.704Z,86.94
2017-09-07T02:01:13.837Z,86.9
2017-09-07T02:01:39.938Z,87.27
2017-09-07T02:02:06.048Z,87.56
2017-09-07T02:02:32.188Z,87.85
2017-09-07T02:02:58.291Z,88.13
2017-09-07T02:03:24.405Z,88.33
2017-09-07T02:03:50.509Z,88.52
2017-09-07T02:04:16.630Z,88.04
2017-09-07T02:04:42.741Z,88.13
2017-09-07T02:05:08.953Z,88.18
2017-09-07T02:05:35.067Z,88.23
2017-09-07T02:06:01.171Z,88.09
2017-09-07T02:06:27.291Z,87.9
2017-09-07T02:06:53.452Z,88.18
2017-09-07T02:07:19.557Z,88.18
2017-09-07T02:07:45.669Z,88.09
2017-09-07T02:08:11.819Z,87.51
2017-09-07T02:08:37.896Z,87.7
2017-09-07T02:09:04.011Z,87.51
2017-09-07T02:09:30.120Z,87.61
2017-09-07T02:09:56.261Z,87.99
2017-09-07T02:10:22.361Z,87.61
2017-09-07T02:10:48.474Z,87.41
2017-09-07T02:11:14.578Z,87.61
2017-09-07T02:11:40.691Z,87.23
2017-09-07T02:12:06.794Z,87.03
2017-09-07T02:12:32.904Z,87.23
2017-09-07T02:12:59.017Z,87.03
2017-09-07T02:13:25.175Z,87.41
2017-09-07T02:13:51.283Z,87.61
2017-09-07T02:14:17.405Z,87.23
2017-09-07T02:14:43.507Z,87.51
2017-09-07T02:15:09.613Z,87.13
2017-09-07T02:15:35.747Z,87.51
2017-09-07T02:16:01.862Z,87.41
2017-09-07T02:16:27.962Z,87.51
2017-09-07T02:16:54.072Z,87.41
2017-09-07T02:17:20.180Z,87.41
2017-09-07T02:17:46.329Z,87.61
2017-09-07T02:18:12.434Z,87.32
2017-09-07T02:18:38.553Z,87.32
2017-09-07T02:19:04.664Z,87.23
2017-09-07T02:19:30.817Z,87.61
2017-09-07T02:19:56.920Z,87.32
2017-09-07T02:20:23.023Z,87.41
2017-09-07T02:20:49.137Z,87.23
2017-09-07T02:21:15.240Z,87.32
2017-09-07T02:21:41.361Z,87.23
2017-09-07T02:22:07.467Z,87.32
2017-09-07T02:22:33.597Z,87.61
2017-09-07T02:22:59.704Z,87.51
2017-09-07T02:23:25.818Z,87.41
2017-09-07T02:23:51.923Z,87.32
2017-09-07T02:24:18.029Z,87.61
2017-09-07T02:24:44.142Z,87.32
2017-09-07T02:25:10.255Z,86.94
2017-09-07T02:25:36.360Z,86.74
2017-09-07T02:26:02.480Z,87.23
2017-09-07T02:26:28.580Z,87.13
2017-09-07T02:26:54.682Z,86.74
2017-09-07T02:27:20.796Z,86.55
2017-09-07T02:27:46.909Z,86.46
2017-09-07T02:28:13.015Z,86.65
2017-09-07T02:28:39.121Z,86.55
2017-09-07T02:29:05.246Z,86.55
2017-09-07T02:29:31.353Z,87.03
2017-09-07T02:29:57.465Z,86.94
2017-09-07T02:30:23.568Z,86.74
2017-09-07T02:30:49.680Z,86.46
2017-09-07T02:31:15.794Z,86.08
2017-09-07T02:31:41.899Z,86.46
2017-09-07T02:32:08.013Z,86.46
2017-09-07T02:32:34.116Z,87.03
2017-09-07T02:33:00.222Z,87.13
2017-09-07T02:33:26.350Z,87.23
2017-09-07T02:33:52.453Z,86.84
2017-09-07T02:34:18.563Z,87.13
2017-09-07T02:34:44.675Z,87.23
2017-09-07T02:35:10.785Z,86.84
2017-09-07T02:35:36.900Z,86.55
2017-09-07T02:36:03.006Z,86.65
2017-09-07T02:36:29.115Z,86.6
2017-09-07T02:36:55.225Z,86.27
2017-09-07T02:37:21.351Z,86.46
2017-09-07T02:37:47.455Z,86.74
2017-09-07T02:38:13.562Z,87.13
2017-09-07T02:38:39.682Z,87.03
2017-09-07T02:39:05.821Z,87.03
2017-09-07T02:39:31.930Z,86.84
2017-09-07T02:39:58.039Z,87.32
2017-09-07T02:40:24.146Z,86.94
2017-09-07T02:40:50.260Z,86.84
2017-09-07T02:41:16.369Z,87.23
2017-09-07T02:41:42.497Z,86.94
2017-09-07T02:42:08.598Z,87.23
2017-09-07T02:42:34.709Z,87.23
2017-09-07T02:43:00.816Z,87.23
2017-09-07T02:43:26.927Z,87.23
2017-09-07T02:43:53.036Z,87.23
2017-09-07T02:44:19.165Z,86.84
2017-09-07T02:44:45.281Z,87.32
2017-09-07T02:45:11.386Z,87.13
2017-09-07T02:45:37.482Z,87.32
2017-09-07T02:46:03.610Z,87.13
2017-09-07T02:46:29.722Z,87.03
2017-09-07T02:46:55.846Z,87.41
2017-09-07T02:47:21.958Z,87.51
2017-09-07T02:47:48.068Z,87.7
2017-09-07T02:48:14.175Z,87.32
2017-09-07T02:48:40.313Z,87.51
2017-09-07T02:49:06.415Z,87.41
2017-09-07T02:49:32.520Z,87.9
2017-09-07T02:49:58.632Z,88.18
2017-09-07T02:50:24.736Z,87.8
2017-09-07T02:50:50.878Z,87.41
2017-09-07T02:51:16.997Z,87.7
2017-09-07T02:51:43.115Z,87.51
2017-09-07T02:52:09.222Z,87.51
2017-09-07T02:52:35.335Z,87.9
2017-09-07T02:53:01.448Z,88.09
2017-09-07T02:53:27.553Z,87.61
2017-09-07T02:53:53.671Z,87.9
2017-09-07T02:54:19.772Z,87.51
2017-09-07T02:54:45.882Z,87.51
2017-09-07T02:55:12.002Z,87.61
2017-09-07T02:55:38.106Z,87.7
2017-09-07T02:56:04.221Z,87.51
2017-09-07T02:56:30.330Z,87.32
2017-09-07T02:56:56.435Z,87.23
2017-09-07T02:57:22.549Z,87.32
2017-09-07T02:57:48.684Z,87.32
2017-09-07T02:58:14.791Z,87.61
2017-09-07T02:58:40.905Z,87.9
2017-09-07T02:59:07.007Z,87.9
2017-09-07T02:59:33.117Z,87.61
2017-09-07T02:59:59.246Z,87.51
2017-09-07T03:00:25.349Z,88.09
2017-09-07T03:00:51.458Z,87.51
2017-09-07T03:01:17.566Z,87.41
2017-09-07T03:01:43.672Z,88.47
2017-09-07T03:02:09.780Z,87.9
2017-09-07T03:02:35.899Z,88.47
2017-09-07T03:03:02.015Z,88.09
2017-09-07T03:03:28.118Z,88.37
2017-09-07T03:03:54.223Z,87.61
2017-09-07T03:04:20.332Z,88.37
2017-09-07T03:04:46.448Z,88.09
2017-09-07T03:05:12.556Z,88.18
2017-09-07T03:05:38.668Z,87.61
2017-09-07T03:06:04.775Z,87.61
2017-09-07T03:06:30.888Z,87.51
2017-09-07T03:06:56.991Z,87.9
2017-09-07T03:07:23.108Z,87.51
2017-09-07T03:07:49.214Z,87.61
2017-09-07T03:08:15.323Z,87.61
2017-09-07T03:08:41.432Z,87.61
2017-09-07T03:09:07.539Z,87.7
2017-09-07T03:09:33.712Z,87.51
2017-09-07T03:09:59.816Z,87.23
2017-09-07T03:10:25.930Z,87.61
2017-09-07T03:10:52.034Z,87.61
2017-09-07T03:11:18.178Z,87.61
2017-09-07T03:11:44.291Z,87.51
2017-09-07T03:12:10.417Z,87.23
2017-09-07T03:12:36.583Z,87.51
2017-09-07T03:13:02.696Z,87.61
2017-09-07T03:13:28.801Z,87.23
2017-09-07T03:13:54.913Z,87.51
2017-09-07T03:14:21.017Z,87.99
2017-09-07T03:14:47.157Z,87.51
2017-09-07T03:15:13.260Z,87.7
2017-09-07T03:15:39.423Z,87.99
2017-09-07T03:16:05.526Z,87.99
2017-09-07T03:16:31.639Z,87.7
2017-09-07T03:16:57.753Z,87.51
2017-09-07T03:17:23.904Z,87.9
2017-09-07T03:17:50.018Z,87.9
2017-09-07T03:18:16.128Z,87.51
2017-09-07T03:18:42.234Z,87.7
2017-09-07T03:19:08.365Z,87.51
2017-09-07T03:19:34.470Z,87.95
2017-09-07T03:20:00.576Z,87.99
2017-09-07T03:20:26.689Z,87.85
2017-09-07T03:20:52.792Z,88.09
2017-09-07T03:21:18.904Z,88.18
2017-09-07T03:21:45.010Z,87.99
2017-09-07T03:22:11.123Z,88.37
2017-09-07T03:22:37.232Z,88.09
2017-09-07T03:23:03.333Z,87.85
2017-09-07T03:23:29.437Z,88.18
2017-09-07T03:23:55.550Z,88.09
2017-09-07T03:24:21.660Z,87.99
2017-09-07T03:24:47.774Z,87.9
2017-09-07T03:25:13.883Z,87.99
2017-09-07T03:25:39.983Z,88.37
2017-09-07T03:26:06.091Z,88.28
2017-09-07T03:26:32.204Z,87.32
2017-09-07T03:26:58.307Z,88.28
2017-09-07T03:27:24.417Z,88.18
2017-09-07T03:27:50.523Z,88.37
2017-09-07T03:28:16.642Z,88.09
2017-09-07T03:28:42.757Z,88.18
2017-09-07T03:29:08.865Z,88.33
2017-09-07T03:29:34.969Z,87.95
2017-09-07T03:30:01.087Z,88.81
2017-09-07T03:30:27.194Z,88.95
2017-09-07T03:30:53.296Z,89.04
2017-09-07T03:31:19.402Z,88.76
2017-09-07T03:31:45.516Z,88.85
2017-09-07T03:32:11.624Z,89.04
2017-09-07T03:32:37.732Z,87.9
2017-09-07T03:33:03.844Z,88.95
2017-09-07T03:33:29.948Z,88.95
2017-09-07T03:33:56.087Z,88.76
2017-09-07T03:34:22.162Z,88.66
2017-09-07T03:34:48.274Z,88.95
2017-09-07T03:35:14.379Z,88.66
2017-09-07T03:35:40.484Z,89.23
2017-09-07T03:36:06.598Z,88.66
2017-09-07T03:36:32.699Z,89.04
2017-09-07T03:36:58.809Z,88.66
2017-09-07T03:37:24.942Z,88.66
2017-09-07T03:37:51.043Z,88.66
2017-09-07T03:38:17.154Z,88.52
2017-09-07T03:38:43.258Z,88.62
2017-09-07T03:39:09.365Z,88.81
2017-09-07T03:39:35.479Z,88.81
2017-09-07T03:40:01.582Z,88.43
2017-09-07T03:40:27.691Z,88.62
2017-09-07T03:40:53.798Z,89.29
2017-09-07T03:41:19.913Z,89.29
2017-09-07T03:41:46.035Z,89.09
2017-09-07T03:42:12.148Z,88.9
2017-09-07T03:42:38.252Z,89.19
2017-09-07T03:43:04.373Z,88.62
2017-09-07T03:43:30.483Z,89.09
2017-09-07T03:43:56.591Z,88.9
2017-09-07T03:44:22.739Z,89.48
2017-09-07T03:44:48.849Z,89.76
2017-09-07T03:45:14.990Z,89.48
2017-09-07T03:45:41.112Z,89.48
2017-09-07T03:46:07.213Z,89.58
2017-09-07T03:46:33.325Z,89.19
2017-09-07T03:46:59.437Z,89.58
2017-09-07T03:47:25.572Z,89.29
2017-09-07T03:47:51.670Z,88.9
2017-09-07T03:48:17.782Z,89.58
2017-09-07T03:48:43.891Z,89.58
2017-09-07T03:49:09.999Z,89.48
2017-09-07T03:49:36.138Z,89.09
2017-09-07T03:50:02.270Z,89.19
2017-09-07T03:50:28.379Z,89.29
2017-09-07T03:50:54.489Z,89.38
2017-09-07T03:51:20.593Z,89.29
2017-09-07T03:51:46.706Z,89.58
2017-09-07T03:52:12.830Z,89.48
2017-09-07T03:52:38.934Z,89.09
2017-09-07T03:53:05.042Z,89.38
2017-09-07T03:53:31.153Z,89.76
2017-09-07T03:53:57.267Z,89.67
2017-09-07T03:54:23.416Z,89.58
2017-09-07T03:54:49.517Z,89.23
2017-09-07T03:55:15.631Z,89
2017-09-07T03:55:41.739Z,89.29
2017-09-07T03:56:07.842Z,89.23
2017-09-07T03:56:33.953Z,89.14
2017-09-07T03:57:00.061Z,89.52
2017-09-07T03:57:26.169Z,89.23
2017-09-07T03:57:52.274Z,89.43
2017-09-07T03:58:18.389Z,89.33
2017-09-07T03:58:44.512Z,89.43
2017-09-07T03:59:10.626Z,88.76
2017-09-07T03:59:36.728Z,89.48
2017-09-07T04:00:02.843Z,89.48
2017-09-07T04:00:28.952Z,89.81
2017-09-07T04:00:55.056Z,89.33
2017-09-07T04:01:21.169Z,89.14
2017-09-07T04:01:47.282Z,88.95
2017-09-07T04:02:13.383Z,89.04
2017-09-07T04:02:39.489Z,88.47
2017-09-07T04:03:05.603Z,88.95
2017-09-07T04:03:31.706Z,88.95
2017-09-07T04:03:57.854Z,88.56
2017-09-07T04:04:23.964Z,89.43
2017-09-07T04:04:50.070Z,89.29
2017-09-07T04:05:16.179Z,89.14
2017-09-07T04:05:42.286Z,88.95
2017-09-07T04:06:08.415Z,88.62
2017-09-07T04:06:34.517Z,89.19
2017-09-07T04:07:00.621Z,88.85
2017-09-07T04:07:26.739Z,88.66
2017-09-07T04:07:52.844Z,89.14
2017-09-07T04:08:18.951Z,89
2017-09-07T04:08:45.061Z,89.09
2017-09-07T04:09:11.165Z,89.38
2017-09-07T04:09:37.341Z,89.38
2017-09-07T04:10:03.429Z,88.81
2017-09-07T04:10:29.535Z,89
2017-09-07T04:10:55.636Z,89.19
2017-09-07T04:11:21.749Z,89
2017-09-07T04:11:47.862Z,88.9
2017-09-07T04:12:13.964Z,88.71
2017-09-07T04:12:40.076Z,89.38
2017-09-07T04:13:06.186Z,88.81
2017-09-07T04:13:32.298Z,89.19
2017-09-07T04:13:58.407Z,89.19
2017-09-07T04:14:24.616Z,89.38
2017-09-07T04:14:50.732Z,89.48
2017-09-07T04:15:16.831Z,89.19
2017-09-07T04:15:42.977Z,89.58
2017-09-07T04:16:09.081Z,89.76
2017-09-07T04:16:35.189Z,89.67
2017-09-07T04:17:01.303Z,89.67
2017-09-07T04:17:27.407Z,89.58
2017-09-07T04:17:53.519Z,89.67
2017-09-07T04:18:19.628Z,89.48
2017-09-07T04:18:45.773Z,89.58
2017-09-07T04:19:11.885Z,89.19
2017-09-07T04:19:37.991Z,89.38
2017-09-07T04:20:04.118Z,89.19
2017-09-07T04:20:30.231Z,89.19
2017-09-07T04:20:56.333Z,89.86
2017-09-07T04:21:22.476Z,89.67
2017-09-07T04:21:48.585Z,89.48
2017-09-07T04:22:14.694Z,89.48
2017-09-07T04:22:40.802Z,89.67
2017-09-07T04:23:06.916Z,89.19
2017-09-07T04:23:33.025Z,89.48
2017-09-07T04:23:59.128Z,89.58
2017-09-07T04:24:25.241Z,89.19
2017-09-07T04:24:51.347Z,89.19
2017-09-07T04:25:17.452Z,89.38
2017-09-07T04:25:43.567Z,89.58
2017-09-07T04:26:09.668Z,89.76
2017-09-07T04:26:35.783Z,89.67
2017-09-07T04:27:01.886Z,89.58
2017-09-07T04:27:28.018Z,89.67
2017-09-07T04:27:54.130Z,89.48
2017-09-07T04:28:20.236Z,89.52
2017-09-07T04:28:46.341Z,89.09
2017-09-07T04:29:12.453Z,89.04
2017-09-07T04:29:38.590Z,88.95
2017-09-07T04:30:04.666Z,88.85
2017-09-07T04:30:30.778Z,89
2017-09-07T04:30:56.897Z,88.85
2017-09-07T04:31:23.023Z,88.95
2017-09-07T04:31:49.127Z,88.85
2017-09-07T04:32:15.234Z,88.71
2017-09-07T04:32:41.345Z,88.62
2017-09-07T04:33:07.459Z,89.81
2017-09-07T04:33:33.563Z,88.81
2017-09-07T04:33:59.669Z,88.81
2017-09-07T04:34:25.782Z,88.81
2017-09-07T04:34:51.887Z,89.04
2017-09-07T04:35:17.999Z,88.71
2017-09-07T04:35:44.101Z,88.85
2017-09-07T04:36:10.213Z,89.14
2017-09-07T04:36:36.327Z,89.43
2017-09-07T04:37:02.430Z,89.43
2017-09-07T04:37:28.537Z,89.33
2017-09-07T04:37:54.650Z,89.23
2017-09-07T04:38:20.760Z,88.66
2017-09-07T04:38:46.868Z,88.76
2017-09-07T04:39:12.976Z,89.33
2017-09-07T04:39:39.081Z,88.56
2017-09-07T04:40:05.189Z,88.66
2017-09-07T04:40:31.288Z,88.66
2017-09-07T04:40:57.395Z,89.14
2017-09-07T04:41:23.524Z,88.66
2017-09-07T04:41:49.633Z,88.85
2017-09-07T04:42:15.744Z,88.95
2017-09-07T04:42:41.849Z,88.76
2017-09-07T04:43:07.965Z,88.85
2017-09-07T04:43:34.065Z,88.95
2017-09-07T04:44:00.179Z,89.23
2017-09-07T04:44:26.289Z,89.33
2017-09-07T04:44:52.393Z,88.81
2017-09-07T04:45:18.543Z,88.81
2017-09-07T04:45:44.651Z,89.09
2017-09-07T04:46:10.748Z,88.85
2017-09-07T04:46:36.877Z,89.14
2017-09-07T04:47:02.989Z,89.52
2017-09-07T04:47:29.097Z,89.04
2017-09-07T04:47:55.205Z,88.56
2017-09-07T04:48:21.317Z,88.37
2017-09-07T04:48:47.420Z,88.81
2017-09-07T04:49:13.534Z,88.71
2017-09-07T04:49:39.637Z,88.18
2017-09-07T04:50:05.746Z,88.23
2017-09-07T04:50:31.859Z,88.56
2017-09-07T04:50:57.963Z,88.95
2017-09-07T04:51:24.070Z,88.76
2017-09-07T04:51:50.182Z,88.71
2017-09-07T04:52:16.284Z,88.23
2017-09-07T04:52:42.392Z,88.81
2017-09-07T04:53:08.498Z,89
2017-09-07T04:53:34.612Z,89.23
2017-09-07T04:54:00.715Z,88.62
2017-09-07T04:54:26.828Z,89.38
2017-09-07T04:54:52.940Z,89.04
2017-09-07T04:55:19.045Z,88.81
2017-09-07T04:55:45.159Z,88.9
2017-09-07T04:56:11.263Z,88.43
2017-09-07T04:56:37.371Z,88.81
2017-09-07T04:57:03.485Z,88.52
2017-09-07T04:57:29.596Z,89.43
2017-09-07T04:57:55.700Z,88.85
2017-09-07T04:58:21.808Z,88.85
2017-09-07T04:58:47.921Z,88.47
2017-09-07T04:59:14.025Z,88.66
2017-09-07T04:59:40.137Z,88.66
2017-09-07T05:00:06.242Z,88.66
2017-09-07T05:00:32.350Z,87.99
2017-09-07T05:00:58.463Z,88.85
2017-09-07T05:01:24.576Z,88.85
2017-09-07T05:01:50.680Z,88.76
2017-09-07T05:02:16.794Z,88.95
2017-09-07T05:02:42.901Z,88.66
2017-09-07T05:03:09.012Z,88.47
2017-09-07T05:03:35.122Z,88.76
2017-09-07T05:04:01.229Z,89.04
2017-09-07T05:04:27.377Z,88.37
2017-09-07T05:04:53.501Z,87.9
2017-09-07T05:05:19.615Z,87.99
2017-09-07T05:05:45.732Z,88.18
2017-09-07T05:06:11.855Z,87.32
2017-09-07T05:06:37.966Z,88.18
2017-09-07T05:07:04.086Z,88.09
2017-09-07T05:07:30.193Z,88.28
2017-09-07T05:07:56.298Z,87.51
2017-09-07T05:08:22.408Z,87.61
2017-09-07T05:08:48.516Z,87.7
2017-09-07T05:09:14.628Z,87.51
2017-09-07T05:09:40.732Z,87.51
2017-09-07T05:10:06.843Z,87.99
2017-09-07T05:10:32.974Z,88.37
2017-09-07T05:10:59.077Z,87.99
2017-09-07T05:11:25.185Z,87.8
2017-09-07T05:11:51.291Z,88.09
2017-09-07T05:12:17.398Z,88.37
2017-09-07T05:12:43.512Z,87.8
2017-09-07T05:13:09.616Z,87.7
2017-09-07T05:13:35.728Z,87.99
2017-09-07T05:14:01.832Z,87.61
2017-09-07T05:14:27.943Z,87.61
2017-09-07T05:14:54.054Z,87.61
2017-09-07T05:15:20.158Z,87.7
2017-09-07T05:15:46.267Z,87.8
2017-09-07T05:16:12.379Z,87.32
2017-09-07T05:16:38.488Z,87.41
2017-09-07T05:17:04.610Z,87.32
2017-09-07T05:17:30.716Z,87.23
2017-09-07T05:17:56.825Z,87.23
2017-09-07T05:18:22.932Z,87.23
2017-09-07T05:18:49.045Z,87.41
2017-09-07T05:19:15.147Z,87.51
2017-09-07T05:19:41.262Z,87.23
2017-09-07T05:20:07.374Z,87.32
2017-09-07T05:20:33.482Z,87.23
2017-09-07T05:20:59.586Z,87.32
2017-09-07T05:21:25.700Z,87.13
2017-09-07T05:21:51.813Z,87.13
2017-09-07T05:22:17.918Z,87.23
2017-09-07T05:22:44.027Z,87.32
2017-09-07T05:23:10.134Z,86.94
2017-09-07T05:23:36.248Z,87.51
2017-09-07T05:24:02.356Z,87.41
2017-09-07T05:24:28.452Z,87.41
2017-09-07T05:24:54.561Z,87.41
2017-09-07T05:25:20.677Z,87.7
2017-09-07T05:25:46.781Z,87.32
2017-09-07T05:26:12.890Z,87.23
2017-09-07T05:26:39.003Z,87.23
2017-09-07T05:27:05.111Z,87.03
2017-09-07T05:27:31.217Z,86.74
2017-09-07T05:27:57.324Z,87.13
2017-09-07T05:28:23.433Z,87.51
2017-09-07T05:28:49.540Z,87.51
2017-09-07T05:29:15.653Z,87.41
2017-09-07T05:29:41.757Z,87.41
2017-09-07T05:30:07.866Z,87.41
2017-09-07T05:30:34.006Z,87.61
2017-09-07T05:31:00.088Z,87.51
2017-09-07T05:31:26.199Z,86.84
2017-09-07T05:31:52.305Z,87.03
2017-09-07T05:32:18.429Z,87.51
2017-09-07T05:32:44.536Z,87.51
2017-09-07T05:33:10.647Z,87.13
2017-09-07T05:33:36.762Z,86.84
2017-09-07T05:34:02.872Z,86.65
2017-09-07T05:34:28.979Z,87.13
2017-09-07T05:34:55.081Z,87.32
2017-09-07T05:35:21.195Z,87.13
2017-09-07T05:35:47.305Z,86.94
2017-09-07T05:36:13.409Z,87.13
2017-09-07T05:36:39.517Z,86.84
2017-09-07T05:37:05.630Z,87.03
2017-09-07T05:37:31.735Z,86.36